sensor_id;sensor_type;location;lat;lon;timestamp;P1;durP1;ratioP1;P2;durP2;ratioP2
462;SDS011;218;51.902;9.542;2022-12-07T00:01:22;24.52;;;17.55;;
462;SDS011;218;51.902;9.542;2022-12-07T00:03:51;19.95;;;16.55;;
462;SDS011;218;51.902;9.542;2022-12-07T00:06:20;20.48;;;15.82;;
462;SDS011;218;51.902;9.542;2022-12-07T00:08:47;20.58;;;15.73;;
462;SDS011;218;51.902;9.542;2022-12-07T00:11:16;19.35;;;15.55;;
462;SDS011;218;51.902;9.542;2022-12-07T00:13:44;20.15;;;16.77;;
462;SDS011;218;51.902;9.542;2022-12-07T00:16:12;19.25;;;15.80;;
462;SDS011;218;51.902;9.542;2022-12-07T00:18:41;19.90;;;15.32;;
462;SDS011;218;51.902;9.542;2022-12-07T00:21:09;21.52;;;16.90;;
462;SDS011;218;51.902;9.542;2022-12-07T00:23:38;22.23;;;16.38;;
462;SDS011;218;51.902;9.542;2022-12-07T00:26:06;19.73;;;17.63;;
462;SDS011;218;51.902;9.542;2022-12-07T00:28:35;19.08;;;16.05;;
462;SDS011;218;51.902;9.542;2022-12-07T00:31:03;20.98;;;15.98;;
462;SDS011;218;51.902;9.542;2022-12-07T00:33:32;20.05;;;14.95;;
462;SDS011;218;51.902;9.542;2022-12-07T00:35:59;17.42;;;14.35;;
462;SDS011;218;51.902;9.542;2022-12-07T00:38:27;18.20;;;16.20;;
462;SDS011;218;51.902;9.542;2022-12-07T00:40:56;17.08;;;14.90;;
462;SDS011;218;51.902;9.542;2022-12-07T00:43:23;22.40;;;16.50;;
462;SDS011;218;51.902;9.542;2022-12-07T00:45:51;21.33;;;16.70;;
462;SDS011;218;51.902;9.542;2022-12-07T00:48:19;24.45;;;16.77;;
462;SDS011;218;51.902;9.542;2022-12-07T00:50:46;19.40;;;16.80;;
462;SDS011;218;51.902;9.542;2022-12-07T00:53:13;23.50;;;16.50;;
462;SDS011;218;51.902;9.542;2022-12-07T00:55:40;21.98;;;16.60;;
462;SDS011;218;51.902;9.542;2022-12-07T00:58:07;20.23;;;16.65;;
462;SDS011;218;51.902;9.542;2022-12-07T01:00:35;20.25;;;16.33;;
462;SDS011;218;51.902;9.542;2022-12-07T01:03:04;20.05;;;16.38;;
462;SDS011;218;51.902;9.542;2022-12-07T01:05:33;19.10;;;14.75;;
462;SDS011;218;51.902;9.542;2022-12-07T01:08:00;20.92;;;17.40;;
462;SDS011;218;51.902;9.542;2022-12-07T01:10:28;17.50;;;14.57;;
462;SDS011;218;51.902;9.542;2022-12-07T01:12:56;17.08;;;14.07;;
462;SDS011;218;51.902;9.542;2022-12-07T01:15:24;18.90;;;15.65;;
462;SDS011;218;51.902;9.542;2022-12-07T01:17:51;19.48;;;15.63;;
462;SDS011;218;51.902;9.542;2022-12-07T01:20:21;18.02;;;15.15;;
462;SDS011;218;51.902;9.542;2022-12-07T01:22:48;18.88;;;14.23;;
462;SDS011;218;51.902;9.542;2022-12-07T01:25:14;17.58;;;14.10;;
462;SDS011;218;51.902;9.542;2022-12-07T01:27:41;16.75;;;14.57;;
462;SDS011;218;51.902;9.542;2022-12-07T01:30:10;18.75;;;14.45;;
462;SDS011;218;51.902;9.542;2022-12-07T01:32:38;18.23;;;14.93;;
462;SDS011;218;51.902;9.542;2022-12-07T01:35:05;18.25;;;15.40;;
462;SDS011;218;51.902;9.542;2022-12-07T01:37:35;17.38;;;14.32;;
462;SDS011;218;51.902;9.542;2022-12-07T01:40:03;16.25;;;14.23;;
462;SDS011;218;51.902;9.542;2022-12-07T01:42:32;18.55;;;15.57;;
462;SDS011;218;51.902;9.542;2022-12-07T01:48:09;17.80;;;14.75;;
462;SDS011;218;51.902;9.542;2022-12-07T01:50:38;16.38;;;14.73;;
462;SDS011;218;51.902;9.542;2022-12-07T01:53:09;18.70;;;14.10;;
462;SDS011;218;51.902;9.542;2022-12-07T01:55:39;18.95;;;14.40;;
462;SDS011;218;51.902;9.542;2022-12-07T01:58:08;17.15;;;14.93;;
462;SDS011;218;51.902;9.542;2022-12-07T02:00:36;15.93;;;13.90;;
462;SDS011;218;51.902;9.542;2022-12-07T02:03:04;16.73;;;14.23;;
462;SDS011;218;51.902;9.542;2022-12-07T02:05:34;17.13;;;15.32;;
462;SDS011;218;51.902;9.542;2022-12-07T02:08:03;18.90;;;15.85;;
462;SDS011;218;51.902;9.542;2022-12-07T02:10:31;19.23;;;14.57;;
462;SDS011;218;51.902;9.542;2022-12-07T02:13:00;19.13;;;15.93;;
462;SDS011;218;51.902;9.542;2022-12-07T02:15:33;15.70;;;13.98;;
462;SDS011;218;51.902;9.542;2022-12-07T02:18:09;18.85;;;13.77;;
462;SDS011;218;51.902;9.542;2022-12-07T02:20:42;20.23;;;15.50;;
462;SDS011;218;51.902;9.542;2022-12-07T02:23:39;19.40;;;15.13;;
462;SDS011;218;51.902;9.542;2022-12-07T02:29:22;18.55;;;15.10;;
462;SDS011;218;51.902;9.542;2022-12-07T02:31:55;16.73;;;13.70;;
462;SDS011;218;51.902;9.542;2022-12-07T02:34:31;17.63;;;15.68;;
462;SDS011;218;51.902;9.542;2022-12-07T02:37:02;18.70;;;16.17;;
462;SDS011;218;51.902;9.542;2022-12-07T02:39:37;19.92;;;16.13;;
462;SDS011;218;51.902;9.542;2022-12-07T02:42:09;23.73;;;18.52;;
462;SDS011;218;51.902;9.542;2022-12-07T02:44:42;19.65;;;16.10;;
462;SDS011;218;51.902;9.542;2022-12-07T02:47:12;20.75;;;15.95;;
462;SDS011;218;51.902;9.542;2022-12-07T02:49:41;18.45;;;16.20;;
462;SDS011;218;51.902;9.542;2022-12-07T02:52:09;19.95;;;17.27;;
462;SDS011;218;51.902;9.542;2022-12-07T02:54:36;21.38;;;15.23;;
462;SDS011;218;51.902;9.542;2022-12-07T02:57:06;20.38;;;16.33;;
462;SDS011;218;51.902;9.542;2022-12-07T02:59:57;21.17;;;16.13;;
462;SDS011;218;51.902;9.542;2022-12-07T03:02:30;19.90;;;16.15;;
462;SDS011;218;51.902;9.542;2022-12-07T03:05:09;18.60;;;15.45;;
462;SDS011;218;51.902;9.542;2022-12-07T03:07:48;19.20;;;14.85;;
462;SDS011;218;51.902;9.542;2022-12-07T03:10:22;20.92;;;16.00;;
462;SDS011;218;51.902;9.542;2022-12-07T03:12:57;23.55;;;17.35;;
462;SDS011;218;51.902;9.542;2022-12-07T03:15:33;22.13;;;17.05;;
462;SDS011;218;51.902;9.542;2022-12-07T03:18:06;19.98;;;15.88;;
462;SDS011;218;51.902;9.542;2022-12-07T03:20:35;21.13;;;17.45;;
462;SDS011;218;51.902;9.542;2022-12-07T03:23:05;21.77;;;15.68;;
462;SDS011;218;51.902;9.542;2022-12-07T03:25:37;17.80;;;15.10;;
462;SDS011;218;51.902;9.542;2022-12-07T03:28:07;21.55;;;17.38;;
462;SDS011;218;51.902;9.542;2022-12-07T03:30:39;19.33;;;16.42;;
462;SDS011;218;51.902;9.542;2022-12-07T03:33:09;18.45;;;16.55;;
462;SDS011;218;51.902;9.542;2022-12-07T03:35:40;18.88;;;15.52;;
462;SDS011;218;51.902;9.542;2022-12-07T03:38:11;21.80;;;17.05;;
462;SDS011;218;51.902;9.542;2022-12-07T03:40:44;16.95;;;14.75;;
462;SDS011;218;51.902;9.542;2022-12-07T03:43:17;21.38;;;15.90;;
462;SDS011;218;51.902;9.542;2022-12-07T03:45:48;18.30;;;15.30;;
462;SDS011;218;51.902;9.542;2022-12-07T03:48:24;19.98;;;15.98;;
462;SDS011;218;51.902;9.542;2022-12-07T03:50:58;19.50;;;15.50;;
462;SDS011;218;51.902;9.542;2022-12-07T03:53:33;20.95;;;15.43;;
462;SDS011;218;51.902;9.542;2022-12-07T03:56:03;18.52;;;15.30;;
462;SDS011;218;51.902;9.542;2022-12-07T03:58:31;19.70;;;15.45;;
462;SDS011;218;51.902;9.542;2022-12-07T04:01:00;16.52;;;14.52;;
462;SDS011;218;51.902;9.542;2022-12-07T04:03:27;18.23;;;14.38;;
462;SDS011;218;51.902;9.542;2022-12-07T04:05:54;21.23;;;13.43;;
462;SDS011;218;51.902;9.542;2022-12-07T04:08:21;20.10;;;13.50;;
462;SDS011;218;51.902;9.542;2022-12-07T04:10:49;16.85;;;12.65;;
462;SDS011;218;51.902;9.542;2022-12-07T04:13:16;18.17;;;14.27;;
462;SDS011;218;51.902;9.542;2022-12-07T04:15:43;15.63;;;13.13;;
462;SDS011;218;51.902;9.542;2022-12-07T04:18:11;15.93;;;12.93;;
462;SDS011;218;51.902;9.542;2022-12-07T04:20:38;17.85;;;13.38;;
462;SDS011;218;51.902;9.542;2022-12-07T04:23:05;15.55;;;12.75;;
462;SDS011;218;51.902;9.542;2022-12-07T04:25:32;19.30;;;13.60;;
462;SDS011;218;51.902;9.542;2022-12-07T04:27:59;15.63;;;12.20;;
462;SDS011;218;51.902;9.542;2022-12-07T04:30:25;13.65;;;11.02;;
462;SDS011;218;51.902;9.542;2022-12-07T04:32:52;18.27;;;13.45;;
462;SDS011;218;51.902;9.542;2022-12-07T04:35:21;18.48;;;12.10;;
462;SDS011;218;51.902;9.542;2022-12-07T04:37:48;15.75;;;11.80;;
462;SDS011;218;51.902;9.542;2022-12-07T04:40:15;12.70;;;10.82;;
462;SDS011;218;51.902;9.542;2022-12-07T04:42:41;15.65;;;11.85;;
462;SDS011;218;51.902;9.542;2022-12-07T04:45:09;14.15;;;11.85;;
462;SDS011;218;51.902;9.542;2022-12-07T04:47:36;15.43;;;11.45;;
462;SDS011;218;51.902;9.542;2022-12-07T04:50:03;14.48;;;10.45;;
462;SDS011;218;51.902;9.542;2022-12-07T04:52:32;12.43;;;10.48;;
462;SDS011;218;51.902;9.542;2022-12-07T04:54:59;14.27;;;10.65;;
462;SDS011;218;51.902;9.542;2022-12-07T04:57:26;13.35;;;11.48;;
462;SDS011;218;51.902;9.542;2022-12-07T04:59:53;13.30;;;10.48;;
462;SDS011;218;51.902;9.542;2022-12-07T05:02:20;11.40;;;10.10;;
462;SDS011;218;51.902;9.542;2022-12-07T05:04:47;10.88;;;9.48;;
462;SDS011;218;51.902;9.542;2022-12-07T05:07:14;11.25;;;9.02;;
462;SDS011;218;51.902;9.542;2022-12-07T05:09:42;15.75;;;11.10;;
462;SDS011;218;51.902;9.542;2022-12-07T05:12:09;13.98;;;9.40;;
462;SDS011;218;51.902;9.542;2022-12-07T05:14:36;14.65;;;8.93;;
462;SDS011;218;51.902;9.542;2022-12-07T05:17:03;10.80;;;8.77;;
462;SDS011;218;51.902;9.542;2022-12-07T05:19:30;12.38;;;8.88;;
462;SDS011;218;51.902;9.542;2022-12-07T05:21:57;11.90;;;8.65;;
462;SDS011;218;51.902;9.542;2022-12-07T05:24:24;12.75;;;9.48;;
462;SDS011;218;51.902;9.542;2022-12-07T05:26:54;8.52;;;7.72;;
462;SDS011;218;51.902;9.542;2022-12-07T05:29:20;9.57;;;7.78;;
462;SDS011;218;51.902;9.542;2022-12-07T05:31:47;11.77;;;7.90;;
462;SDS011;218;51.902;9.542;2022-12-07T05:34:14;12.95;;;9.00;;
462;SDS011;218;51.902;9.542;2022-12-07T05:36:41;9.38;;;7.88;;
462;SDS011;218;51.902;9.542;2022-12-07T05:39:08;10.13;;;8.70;;
462;SDS011;218;51.902;9.542;2022-12-07T05:41:36;11.07;;;8.82;;
462;SDS011;218;51.902;9.542;2022-12-07T05:44:22;8.65;;;7.75;;
462;SDS011;218;51.902;9.542;2022-12-07T05:46:49;7.68;;;6.30;;
462;SDS011;218;51.902;9.542;2022-12-07T05:49:16;8.40;;;7.32;;
462;SDS011;218;51.902;9.542;2022-12-07T05:51:43;7.50;;;6.80;;
462;SDS011;218;51.902;9.542;2022-12-07T05:54:10;9.50;;;8.05;;
462;SDS011;218;51.902;9.542;2022-12-07T05:56:37;10.73;;;7.50;;
462;SDS011;218;51.902;9.542;2022-12-07T05:59:03;10.30;;;6.93;;
462;SDS011;218;51.902;9.542;2022-12-07T06:01:50;9.18;;;6.63;;
462;SDS011;218;51.902;9.542;2022-12-07T06:04:18;8.75;;;7.80;;
462;SDS011;218;51.902;9.542;2022-12-07T06:06:45;8.25;;;6.80;;
462;SDS011;218;51.902;9.542;2022-12-07T06:09:13;10.48;;;7.70;;
462;SDS011;218;51.902;9.542;2022-12-07T06:11:40;8.15;;;6.20;;
462;SDS011;218;51.902;9.542;2022-12-07T06:14:25;10.88;;;7.50;;
462;SDS011;218;51.902;9.542;2022-12-07T06:16:53;7.13;;;6.43;;
462;SDS011;218;51.902;9.542;2022-12-07T06:19:20;10.50;;;7.10;;
462;SDS011;218;51.902;9.542;2022-12-07T06:21:47;8.35;;;7.18;;
462;SDS011;218;51.902;9.542;2022-12-07T06:24:15;7.05;;;6.45;;
462;SDS011;218;51.902;9.542;2022-12-07T06:26:42;7.18;;;6.47;;
462;SDS011;218;51.902;9.542;2022-12-07T06:29:10;8.32;;;6.10;;
462;SDS011;218;51.902;9.542;2022-12-07T06:31:37;7.40;;;6.80;;
462;SDS011;218;51.902;9.542;2022-12-07T06:34:06;8.55;;;6.90;;
462;SDS011;218;51.902;9.542;2022-12-07T06:36:35;8.18;;;6.47;;
462;SDS011;218;51.902;9.542;2022-12-07T06:39:02;6.78;;;5.75;;
462;SDS011;218;51.902;9.542;2022-12-07T06:41:30;8.65;;;6.25;;
462;SDS011;218;51.902;9.542;2022-12-07T06:43:57;9.27;;;5.82;;
462;SDS011;218;51.902;9.542;2022-12-07T06:46:24;7.65;;;6.60;;
462;SDS011;218;51.902;9.542;2022-12-07T06:48:51;6.47;;;5.57;;
462;SDS011;218;51.902;9.542;2022-12-07T06:51:20;6.40;;;5.75;;
462;SDS011;218;51.902;9.542;2022-12-07T06:53:47;7.70;;;5.90;;
462;SDS011;218;51.902;9.542;2022-12-07T06:56:13;8.15;;;6.43;;
462;SDS011;218;51.902;9.542;2022-12-07T06:58:41;7.22;;;6.53;;
462;SDS011;218;51.902;9.542;2022-12-07T07:01:08;11.57;;;6.00;;
462;SDS011;218;51.902;9.542;2022-12-07T07:03:36;6.38;;;5.15;;
462;SDS011;218;51.902;9.542;2022-12-07T07:06:03;6.90;;;6.18;;
462;SDS011;218;51.902;9.542;2022-12-07T07:08:32;5.97;;;5.40;;
462;SDS011;218;51.902;9.542;2022-12-07T07:10:59;9.13;;;5.85;;
462;SDS011;218;51.902;9.542;2022-12-07T07:13:26;6.72;;;5.53;;
462;SDS011;218;51.902;9.542;2022-12-07T07:15:53;8.65;;;5.45;;
462;SDS011;218;51.902;9.542;2022-12-07T07:18:21;7.13;;;6.40;;
462;SDS011;218;51.902;9.542;2022-12-07T07:20:48;7.28;;;6.47;;
462;SDS011;218;51.902;9.542;2022-12-07T07:23:16;8.68;;;6.22;;
462;SDS011;218;51.902;9.542;2022-12-07T07:25:45;5.70;;;5.20;;
462;SDS011;218;51.902;9.542;2022-12-07T07:28:12;11.77;;;6.32;;
462;SDS011;218;51.902;9.542;2022-12-07T07:30:39;6.30;;;5.68;;
462;SDS011;218;51.902;9.542;2022-12-07T07:33:06;10.85;;;5.43;;
462;SDS011;218;51.902;9.542;2022-12-07T07:35:34;8.75;;;5.45;;
462;SDS011;218;51.902;9.542;2022-12-07T07:38:01;6.13;;;5.45;;
462;SDS011;218;51.902;9.542;2022-12-07T07:40:29;6.40;;;5.80;;
462;SDS011;218;51.902;9.542;2022-12-07T07:42:57;6.22;;;5.35;;
462;SDS011;218;51.902;9.542;2022-12-07T07:45:25;5.22;;;4.72;;
462;SDS011;218;51.902;9.542;2022-12-07T07:47:52;7.18;;;6.57;;
462;SDS011;218;51.902;9.542;2022-12-07T07:50:20;6.07;;;5.45;;
462;SDS011;218;51.902;9.542;2022-12-07T07:52:47;6.80;;;5.45;;
462;SDS011;218;51.902;9.542;2022-12-07T07:55:14;6.95;;;6.25;;
462;SDS011;218;51.902;9.542;2022-12-07T07:57:41;5.72;;;5.22;;
462;SDS011;218;51.902;9.542;2022-12-07T08:00:11;7.75;;;5.53;;
462;SDS011;218;51.902;9.542;2022-12-07T08:02:40;9.07;;;5.90;;
462;SDS011;218;51.902;9.542;2022-12-07T08:05:09;8.55;;;4.90;;
462;SDS011;218;51.902;9.542;2022-12-07T08:07:36;8.40;;;5.55;;
462;SDS011;218;51.902;9.542;2022-12-07T08:10:04;6.28;;;5.35;;
462;SDS011;218;51.902;9.542;2022-12-07T08:12:35;6.05;;;5.20;;
462;SDS011;218;51.902;9.542;2022-12-07T08:15:26;6.88;;;5.88;;
462;SDS011;218;51.902;9.542;2022-12-07T08:17:54;10.30;;;6.22;;
462;SDS011;218;51.902;9.542;2022-12-07T08:20:21;5.90;;;5.38;;
462;SDS011;218;51.902;9.542;2022-12-07T08:22:48;6.80;;;5.80;;
462;SDS011;218;51.902;9.542;2022-12-07T08:25:15;7.68;;;5.82;;
462;SDS011;218;51.902;9.542;2022-12-07T08:27:42;8.20;;;5.95;;
462;SDS011;218;51.902;9.542;2022-12-07T08:30:09;7.70;;;5.90;;
462;SDS011;218;51.902;9.542;2022-12-07T08:32:38;5.70;;;5.20;;
462;SDS011;218;51.902;9.542;2022-12-07T08:35:05;7.15;;;5.60;;
462;SDS011;218;51.902;9.542;2022-12-07T08:37:33;6.75;;;5.60;;
462;SDS011;218;51.902;9.542;2022-12-07T08:40:00;7.28;;;5.75;;
462;SDS011;218;51.902;9.542;2022-12-07T08:42:26;7.15;;;6.53;;
462;SDS011;218;51.902;9.542;2022-12-07T08:44:55;8.27;;;6.20;;
462;SDS011;218;51.902;9.542;2022-12-07T08:47:23;6.18;;;5.57;;
462;SDS011;218;51.902;9.542;2022-12-07T08:49:52;7.05;;;6.30;;
462;SDS011;218;51.902;9.542;2022-12-07T08:52:20;5.85;;;5.25;;
462;SDS011;218;51.902;9.542;2022-12-07T08:54:47;7.57;;;6.15;;
462;SDS011;218;51.902;9.542;2022-12-07T08:57:15;10.57;;;6.57;;
462;SDS011;218;51.902;9.542;2022-12-07T08:59:42;6.65;;;5.80;;
462;SDS011;218;51.902;9.542;2022-12-07T09:02:09;7.57;;;6.78;;
462;SDS011;218;51.902;9.542;2022-12-07T09:04:36;6.40;;;5.75;;
462;SDS011;218;51.902;9.542;2022-12-07T09:07:04;6.40;;;5.80;;
462;SDS011;218;51.902;9.542;2022-12-07T09:09:31;7.72;;;4.63;;
462;SDS011;218;51.902;9.542;2022-12-07T09:11:58;5.22;;;4.72;;
462;SDS011;218;51.902;9.542;2022-12-07T09:14:25;6.72;;;5.82;;
462;SDS011;218;51.902;9.542;2022-12-07T09:16:52;6.32;;;5.63;;
462;SDS011;218;51.902;9.542;2022-12-07T09:19:19;5.75;;;5.00;;
462;SDS011;218;51.902;9.542;2022-12-07T09:21:46;6.07;;;5.18;;
462;SDS011;218;51.902;9.542;2022-12-07T09:24:14;5.65;;;5.15;;
462;SDS011;218;51.902;9.542;2022-12-07T09:26:41;6.72;;;6.03;;
462;SDS011;218;51.902;9.542;2022-12-07T09:29:09;7.97;;;7.20;;
462;SDS011;218;51.902;9.542;2022-12-07T09:31:36;7.28;;;5.65;;
462;SDS011;218;51.902;9.542;2022-12-07T09:34:03;7.03;;;5.50;;
462;SDS011;218;51.902;9.542;2022-12-07T09:36:31;6.40;;;5.80;;
462;SDS011;218;51.902;9.542;2022-12-07T09:38:58;6.75;;;6.15;;
462;SDS011;218;51.902;9.542;2022-12-07T09:41:26;6.80;;;6.20;;
462;SDS011;218;51.902;9.542;2022-12-07T09:43:58;6.30;;;5.70;;
462;SDS011;218;51.902;9.542;2022-12-07T09:46:30;6.63;;;6.00;;
462;SDS011;218;51.902;9.542;2022-12-07T09:49:02;6.13;;;5.63;;
462;SDS011;218;51.902;9.542;2022-12-07T09:51:29;6.85;;;5.45;;
462;SDS011;218;51.902;9.542;2022-12-07T09:53:57;5.82;;;5.40;;
462;SDS011;218;51.902;9.542;2022-12-07T09:56:28;11.43;;;6.03;;
462;SDS011;218;51.902;9.542;2022-12-07T09:58:58;7.35;;;5.20;;
462;SDS011;218;51.902;9.542;2022-12-07T10:01:27;4.82;;;4.43;;
462;SDS011;218;51.902;9.542;2022-12-07T10:03:56;6.38;;;5.38;;
462;SDS011;218;51.902;9.542;2022-12-07T10:06:28;5.78;;;5.28;;
462;SDS011;218;51.902;9.542;2022-12-07T10:08:55;5.32;;;4.82;;
462;SDS011;218;51.902;9.542;2022-12-07T10:11:22;6.43;;;5.82;;
462;SDS011;218;51.902;9.542;2022-12-07T10:13:51;6.07;;;5.15;;
462;SDS011;218;51.902;9.542;2022-12-07T10:16:28;4.85;;;4.20;;
462;SDS011;218;51.902;9.542;2022-12-07T10:19:16;6.07;;;4.50;;
462;SDS011;218;51.902;9.542;2022-12-07T10:21:58;5.90;;;5.25;;
462;SDS011;218;51.902;9.542;2022-12-07T10:24:35;7.60;;;5.32;;
462;SDS011;218;51.902;9.542;2022-12-07T10:27:09;6.88;;;5.90;;
462;SDS011;218;51.902;9.542;2022-12-07T10:29:48;6.97;;;5.45;;
462;SDS011;218;51.902;9.542;2022-12-07T10:32:28;7.72;;;4.35;;
462;SDS011;218;51.902;9.542;2022-12-07T10:35:18;4.80;;;4.07;;
462;SDS011;218;51.902;9.542;2022-12-07T10:37:47;3.55;;;3.25;;
462;SDS011;218;51.902;9.542;2022-12-07T10:40:26;6.43;;;4.57;;
462;SDS011;218;51.902;9.542;2022-12-07T10:43:02;5.00;;;4.15;;
462;SDS011;218;51.902;9.542;2022-12-07T10:45:34;4.75;;;4.00;;
462;SDS011;218;51.902;9.542;2022-12-07T10:48:08;4.40;;;4.00;;
462;SDS011;218;51.902;9.542;2022-12-07T10:50:47;5.43;;;3.22;;
462;SDS011;218;51.902;9.542;2022-12-07T10:53:28;4.30;;;3.90;;
462;SDS011;218;51.902;9.542;2022-12-07T10:59:50;4.80;;;3.92;;
462;SDS011;218;51.902;9.542;2022-12-07T11:02:30;3.25;;;2.90;;
462;SDS011;218;51.902;9.542;2022-12-07T11:05:07;4.05;;;3.67;;
462;SDS011;218;51.902;9.542;2022-12-07T11:07:46;3.85;;;3.10;;
462;SDS011;218;51.902;9.542;2022-12-07T11:10:21;4.78;;;3.38;;
462;SDS011;218;51.902;9.542;2022-12-07T11:12:56;6.15;;;3.85;;
462;SDS011;218;51.902;9.542;2022-12-07T11:15:32;4.30;;;3.55;;
462;SDS011;218;51.902;9.542;2022-12-07T11:18:11;10.50;;;9.70;;
462;SDS011;218;51.902;9.542;2022-12-07T11:20:43;34.60;;;31.42;;
462;SDS011;218;51.902;9.542;2022-12-07T11:23:20;20.15;;;18.65;;
462;SDS011;218;51.902;9.542;2022-12-07T11:25:59;13.38;;;12.23;;
462;SDS011;218;51.902;9.542;2022-12-07T11:28:33;7.30;;;6.70;;
462;SDS011;218;51.902;9.542;2022-12-07T11:31:10;6.72;;;5.85;;
462;SDS011;218;51.902;9.542;2022-12-07T11:33:43;7.60;;;7.00;;
462;SDS011;218;51.902;9.542;2022-12-07T11:36:29;5.65;;;4.70;;
462;SDS011;218;51.902;9.542;2022-12-07T11:39:02;4.60;;;4.05;;
462;SDS011;218;51.902;9.542;2022-12-07T11:41:32;4.78;;;4.38;;
462;SDS011;218;51.902;9.542;2022-12-07T11:44:05;4.82;;;4.03;;
462;SDS011;218;51.902;9.542;2022-12-07T11:46:39;5.35;;;4.85;;
462;SDS011;218;51.902;9.542;2022-12-07T11:49:14;5.78;;;4.28;;
462;SDS011;218;51.902;9.542;2022-12-07T11:51:51;5.63;;;3.97;;
462;SDS011;218;51.902;9.542;2022-12-07T11:54:21;5.72;;;4.40;;
462;SDS011;218;51.902;9.542;2022-12-07T11:56:50;5.55;;;3.80;;
462;SDS011;218;51.902;9.542;2022-12-07T11:59:22;5.40;;;3.53;;
462;SDS011;218;51.902;9.542;2022-12-07T12:01:55;5.40;;;3.45;;
462;SDS011;218;51.902;9.542;2022-12-07T12:04:29;5.53;;;4.40;;
462;SDS011;218;51.902;9.542;2022-12-07T12:07:02;8.70;;;4.60;;
462;SDS011;218;51.902;9.542;2022-12-07T12:09:33;7.45;;;5.80;;
462;SDS011;218;51.902;9.542;2022-12-07T12:12:09;7.55;;;6.50;;
462;SDS011;218;51.902;9.542;2022-12-07T12:14:59;7.20;;;5.95;;
462;SDS011;218;51.902;9.542;2022-12-07T12:17:46;4.53;;;4.00;;
462;SDS011;218;51.902;9.542;2022-12-07T12:20:37;5.80;;;4.00;;
462;SDS011;218;51.902;9.542;2022-12-07T12:23:10;3.95;;;3.45;;
462;SDS011;218;51.902;9.542;2022-12-07T12:25:40;4.30;;;3.75;;
462;SDS011;218;51.902;9.542;2022-12-07T12:28:18;3.55;;;2.90;;
462;SDS011;218;51.902;9.542;2022-12-07T12:31:03;4.22;;;3.88;;
462;SDS011;218;51.902;9.542;2022-12-07T12:33:32;3.45;;;2.72;;
462;SDS011;218;51.902;9.542;2022-12-07T12:36:26;5.30;;;3.50;;
462;SDS011;218;51.902;9.542;2022-12-07T12:39:14;3.55;;;3.15;;
462;SDS011;218;51.902;9.542;2022-12-07T12:41:56;4.05;;;3.38;;
462;SDS011;218;51.902;9.542;2022-12-07T12:44:39;3.17;;;2.80;;
462;SDS011;218;51.902;9.542;2022-12-07T12:50:23;5.75;;;3.85;;
462;SDS011;218;51.902;9.542;2022-12-07T12:52:57;4.10;;;3.67;;
462;SDS011;218;51.902;9.542;2022-12-07T12:58:39;4.03;;;3.15;;
462;SDS011;218;51.902;9.542;2022-12-07T13:13:31;3.60;;;3.30;;
462;SDS011;218;51.902;9.542;2022-12-07T13:22:35;4.85;;;3.47;;
462;SDS011;218;51.902;9.542;2022-12-07T13:25:09;8.80;;;6.38;;
462;SDS011;218;51.902;9.542;2022-12-07T13:27:39;9.60;;;8.13;;
462;SDS011;218;51.902;9.542;2022-12-07T13:30:12;7.32;;;5.43;;
462;SDS011;218;51.902;9.542;2022-12-07T13:32:41;4.47;;;4.07;;
462;SDS011;218;51.902;9.542;2022-12-07T13:37:56;8.40;;;5.05;;
462;SDS011;218;51.902;9.542;2022-12-07T13:40:23;6.00;;;5.45;;
462;SDS011;218;51.902;9.542;2022-12-07T13:42:58;7.05;;;3.38;;
462;SDS011;218;51.902;9.542;2022-12-07T13:45:26;4.93;;;2.80;;
462;SDS011;218;51.902;9.542;2022-12-07T13:48:08;5.90;;;3.28;;
462;SDS011;218;51.902;9.542;2022-12-07T13:50:41;5.03;;;3.03;;
462;SDS011;218;51.902;9.542;2022-12-07T13:53:11;4.43;;;3.03;;
462;SDS011;218;51.902;9.542;2022-12-07T13:55:44;4.32;;;3.25;;
462;SDS011;218;51.902;9.542;2022-12-07T13:58:13;4.68;;;3.70;;
462;SDS011;218;51.902;9.542;2022-12-07T14:00:40;4.55;;;3.30;;
462;SDS011;218;51.902;9.542;2022-12-07T14:03:23;6.75;;;3.40;;
462;SDS011;218;51.902;9.542;2022-12-07T14:06:04;8.00;;;3.03;;
462;SDS011;218;51.902;9.542;2022-12-07T14:08:43;2.75;;;2.65;;
462;SDS011;218;51.902;9.542;2022-12-07T14:11:13;3.60;;;2.90;;
462;SDS011;218;51.902;9.542;2022-12-07T14:13:54;3.28;;;2.38;;
462;SDS011;218;51.902;9.542;2022-12-07T14:16:25;4.65;;;3.88;;
462;SDS011;218;51.902;9.542;2022-12-07T14:18:54;4.28;;;2.88;;
462;SDS011;218;51.902;9.542;2022-12-07T14:21:23;3.67;;;3.33;;
462;SDS011;218;51.902;9.542;2022-12-07T14:24:02;3.38;;;3.08;;
462;SDS011;218;51.902;9.542;2022-12-07T14:26:35;3.20;;;2.45;;
462;SDS011;218;51.902;9.542;2022-12-07T14:29:29;4.80;;;2.95;;
462;SDS011;218;51.902;9.542;2022-12-07T14:31:58;3.58;;;3.03;;
462;SDS011;218;51.902;9.542;2022-12-07T14:34:37;3.63;;;2.80;;
462;SDS011;218;51.902;9.542;2022-12-07T14:37:03;2.90;;;2.65;;
462;SDS011;218;51.902;9.542;2022-12-07T14:39:33;3.17;;;2.88;;
462;SDS011;218;51.902;9.542;2022-12-07T14:42:00;4.55;;;2.95;;
462;SDS011;218;51.902;9.542;2022-12-07T14:44:28;3.58;;;2.28;;
462;SDS011;218;51.902;9.542;2022-12-07T14:46:55;5.13;;;2.90;;
462;SDS011;218;51.902;9.542;2022-12-07T14:49:22;3.83;;;3.25;;
462;SDS011;218;51.902;9.542;2022-12-07T14:51:49;2.50;;;2.30;;
462;SDS011;218;51.902;9.542;2022-12-07T14:54:16;3.00;;;2.70;;
462;SDS011;218;51.902;9.542;2022-12-07T14:56:46;2.88;;;2.50;;
462;SDS011;218;51.902;9.542;2022-12-07T14:59:14;4.15;;;3.00;;
462;SDS011;218;51.902;9.542;2022-12-07T15:01:43;4.18;;;2.83;;
462;SDS011;218;51.902;9.542;2022-12-07T15:04:10;3.78;;;2.83;;
462;SDS011;218;51.902;9.542;2022-12-07T15:06:37;4.05;;;2.88;;
462;SDS011;218;51.902;9.542;2022-12-07T15:09:04;4.53;;;3.20;;
462;SDS011;218;51.902;9.542;2022-12-07T15:11:32;3.97;;;3.58;;
462;SDS011;218;51.902;9.542;2022-12-07T15:13:59;3.50;;;3.15;;
462;SDS011;218;51.902;9.542;2022-12-07T15:16:36;3.00;;;2.80;;
462;SDS011;218;51.902;9.542;2022-12-07T15:19:07;5.95;;;3.20;;
462;SDS011;218;51.902;9.542;2022-12-07T15:21:38;3.50;;;3.22;;
462;SDS011;218;51.902;9.542;2022-12-07T15:24:05;10.88;;;3.50;;
462;SDS011;218;51.902;9.542;2022-12-07T15:26:32;3.95;;;2.55;;
462;SDS011;218;51.902;9.542;2022-12-07T15:28:59;2.92;;;2.67;;
462;SDS011;218;51.902;9.542;2022-12-07T15:31:26;3.25;;;2.88;;
462;SDS011;218;51.902;9.542;2022-12-07T15:33:53;5.32;;;3.63;;
462;SDS011;218;51.902;9.542;2022-12-07T15:36:22;8.60;;;4.85;;
462;SDS011;218;51.902;9.542;2022-12-07T15:38:50;4.85;;;3.78;;
462;SDS011;218;51.902;9.542;2022-12-07T15:41:17;5.00;;;3.33;;
462;SDS011;218;51.902;9.542;2022-12-07T15:43:44;4.72;;;3.38;;
462;SDS011;218;51.902;9.542;2022-12-07T15:46:29;5.65;;;3.05;;
462;SDS011;218;51.902;9.542;2022-12-07T15:48:57;6.05;;;3.50;;
462;SDS011;218;51.902;9.542;2022-12-07T15:51:25;4.13;;;3.38;;
462;SDS011;218;51.902;9.542;2022-12-07T15:53:53;4.72;;;3.70;;
462;SDS011;218;51.902;9.542;2022-12-07T15:56:20;3.40;;;2.55;;
462;SDS011;218;51.902;9.542;2022-12-07T15:58:47;7.40;;;5.25;;
462;SDS011;218;51.902;9.542;2022-12-07T16:01:15;5.50;;;3.55;;
462;SDS011;218;51.902;9.542;2022-12-07T16:03:44;4.97;;;3.97;;
462;SDS011;218;51.902;9.542;2022-12-07T16:06:11;5.32;;;3.60;;
462;SDS011;218;51.902;9.542;2022-12-07T16:08:43;4.50;;;2.70;;
462;SDS011;218;51.902;9.542;2022-12-07T16:11:11;6.07;;;3.63;;
462;SDS011;218;51.902;9.542;2022-12-07T16:13:38;3.58;;;2.60;;
462;SDS011;218;51.902;9.542;2022-12-07T16:16:05;4.55;;;3.25;;
462;SDS011;218;51.902;9.542;2022-12-07T16:18:34;4.25;;;3.08;;
462;SDS011;218;51.902;9.542;2022-12-07T16:21:01;4.05;;;3.10;;
462;SDS011;218;51.902;9.542;2022-12-07T16:23:29;3.25;;;2.95;;
462;SDS011;218;51.902;9.542;2022-12-07T16:26:04;3.17;;;2.97;;
462;SDS011;218;51.902;9.542;2022-12-07T16:28:32;3.00;;;2.75;;
462;SDS011;218;51.902;9.542;2022-12-07T16:31:00;4.28;;;3.33;;
462;SDS011;218;51.902;9.542;2022-12-07T16:33:28;5.85;;;3.17;;